Главная страница
METAR-TAF:

METAR-TAF

Аэропорты :

Пулково

Санкт-Петербург, Россия

широта: 59-58N, долгота: 030-18E, высота над уровнем моря: 4 м

Текущие метеонаблюдения

Эта сводка был подготовлена 16 минут назад, в 19:00 UTC
Ветер 2 Узел переменных направлений
Температура 15°C
Влажность 67%
Давление 1015 hPa
Видимость 10 км и более
Нет облачности ниже 1500 м, и нет кучево-дождевой облачности

METAR: ULLI 131900Z VRB01MPS CAVOK 15/09 Q1015 R28L/090060 NOSIG

Время: 22:16 (19:16 UTC)

Прогноз

Эта сводка был подготовлена 2 часа и 21 минут назад, в 16:55 UTC
Прогноз действительный с 13-го 18 UTC до 14-го 18 UTC
Ветер 10 Узел от северно-северо-западный с порывами до 19 Узел
Видимость 10 км и более
Отдельные облака на высоте 3000 фута
изменения
С 13-го 20 UTC до 13-го 22 UTC
Ветер 6 Узел от западный

TAF: ULLI 131655Z 1318/1418 33005G10MPS 9999 SCT030 BECMG 1320/1322 28003MPS

Метеонаблюдения и прогнозы для более 4000 аэропортов (сводки METAR и TAF).

Имеющиеся станции представлены на карте желтыми и красными точками.

Чтобы увидеть название станции, наведите на нее мышь.

Затем щелкните, чтобы увидеть метеонаблюдения и метеопрогнозы.

Управление картой: чтобы увеличить масштаб, щелкните зеленые кнопки с черным крестиком; чтобы уменьшить масштаб, щелкните зеленую кнопку с тире; для просмотра соседних карт щелкайте зеленые стрелки.


METAR-TAF: